« Back
NWS Peachtree City, Ga » Text Product » AHN Terminal Aerodrome Forecast


Printer-friendly Version
Current Version              Previous Versions:   1  2  3  4  5  6  7  8  9  

Terminal Aerodrome Forecast

996
FTUS42 KFFC 280536
TAFAHN
TAF
KAHN 280536Z 2806/2906 32007KT P6SM SKC
     FM281600 VRB03KT P6SM SKC
     FM282200 15003KT P6SM SKC
     FM290200 12002KT P6SM SKC=

USA.gov is the U.S. government's official web portal to all federal, state and local government web resources and services.